Decoded METAR's for Mozambique

 
 
Print Page

Back to Weather Page

 
 

Beira - Mozambique, FQBR

ADDS - TAFS form results

Aviation Digital Data Service (ADDS)

Output produced by TAFs form (0427 UTC 24 April 2018)
found at http://aviationweather.gov/adds/tafs/
 
METAR text: FQBR 240400Z /////KT 9999 SCT015 24/21 Q1016
Conditions at: FQBR (BEIRA , MZ) observed 0400 UTC 24 April 2018
Temperature: 24.0°C (75°F)
Dewpoint: 21.0°C (70°F) [RH = 83%]
Pressure (altimeter): 30.00 inches Hg (1016.0 mb)
Winds: missing
Visibility: 6 or more miles (10+ km)
Ceiling: at least 12,000 feet AGL
Clouds: scattered clouds at 1500 feet AGL
Weather: no significant weather observed at this time

Array
Chimoio - Mozambique, FQCH

ADDS - TAFS form results

Aviation Digital Data Service (ADDS)

Output produced by TAFs form (0427 UTC 24 April 2018)
found at http://aviationweather.gov/adds/tafs/
 
METAR text: FQCH 240400Z 00000KT 0100 +FG FEW015 17/17 Q1022
Conditions at: FQCH (CHIMOIO , MZ) observed 0400 UTC 24 April 2018
Temperature: 17.0°C (63°F)
Dewpoint: 17.0°C (63°F) [RH = 100%]
Pressure (altimeter): 30.18 inches Hg (1022.0 mb)
Winds: calm
Visibility: 0.06 miles (0.10 km)
Ceiling: at least 12,000 feet AGL
Clouds: few clouds at 1500 feet AGL
Weather: +FG  ( could not decipher "+FG")

Array
Inhambane - Mozambique, FQIN

ADDS - TAFS form results

Aviation Digital Data Service (ADDS)

Output produced by TAFs form (0427 UTC 24 April 2018)
found at http://aviationweather.gov/adds/tafs/
 
METAR text: FQIN 240400Z 00000KT 9999 FEW020 17/16 Q1017
Conditions at: FQIN (INHAMBANE , MZ) observed 0400 UTC 24 April 2018
Temperature: 17.0°C (63°F)
Dewpoint: 16.0°C (61°F) [RH = 94%]
Pressure (altimeter): 30.03 inches Hg (1017.0 mb)
Winds: calm
Visibility: 6 or more miles (10+ km)
Ceiling: at least 12,000 feet AGL
Clouds: few clouds at 2000 feet AGL
Weather: no significant weather observed at this time

Array
Lichinga - Mozambique, FQLC

ADDS - TAFS form results

Aviation Digital Data Service (ADDS)

Output produced by TAFs form (0427 UTC 24 April 2018)
found at http://aviationweather.gov/adds/tafs/
 
You entered "FQLC"

Sorry, either there are no data available for your request or you did not enter any valid ICAO airport abbreviations.

See stations.txt for a list of known METAR and TAF locations. Then go back to the ADDS METARs or TAFs page and try again
 
Please try again and, if problems persist, then send mail to ncep.awc.adds@noaa.gov
Array
Maputo - Mozambique, FQMA

ADDS - TAFS form results

Aviation Digital Data Service (ADDS)

Output produced by TAFs form (0427 UTC 24 April 2018)
found at http://aviationweather.gov/adds/tafs/
 
METAR text: FQMA 240400Z 35005KT 9999 FEW025 20/18 Q1017 NOSIG
Conditions at: FQMA (MAPUTO/MAVALANE , MZ) observed 0400 UTC 24 April 2018
Temperature: 20.0°C (68°F)
Dewpoint: 18.0°C (64°F) [RH = 88%]
Pressure (altimeter): 30.03 inches Hg (1017.0 mb)
Winds: from the N (350 degrees) at 6 MPH (5 knots; 2.6 m/s)
Visibility: 6 or more miles (10+ km)
Ceiling: at least 12,000 feet AGL
Clouds: few clouds at 2500 feet AGL
Weather: no significant weather observed at this time

Array
Nampula - Mozambique, FQNP

ADDS - TAFS form results

Aviation Digital Data Service (ADDS)

Output produced by TAFs form (0427 UTC 24 April 2018)
found at http://aviationweather.gov/adds/tafs/
 
METAR text: FQNP 240300Z /////KT 9999 SCT020 21/21 Q1016
Conditions at: FQNP (NAMPULA , MZ) observed 0300 UTC 24 April 2018
Temperature: 21.0°C (70°F)
Dewpoint: 21.0°C (70°F) [RH = 100%]
Pressure (altimeter): 30.00 inches Hg (1016.0 mb)
Winds: missing
Visibility: 6 or more miles (10+ km)
Ceiling: at least 12,000 feet AGL
Clouds: scattered clouds at 2000 feet AGL
Weather: no significant weather observed at this time

Array
Pemba - Mozambique, FQPB

ADDS - TAFS form results

Aviation Digital Data Service (ADDS)

Output produced by TAFs form (0427 UTC 24 April 2018)
found at http://aviationweather.gov/adds/tafs/
 
METAR text: FQPB 240400Z 24007KT 9999 FEW020 21/19 Q1014
Conditions at: FQPB (PEMBA , MZ) observed 0400 UTC 24 April 2018
Temperature: 21.0°C (70°F)
Dewpoint: 19.0°C (66°F) [RH = 88%]
Pressure (altimeter): 29.94 inches Hg (1014.0 mb)
Winds: from the WSW (240 degrees) at 8 MPH (7 knots; 3.6 m/s)
Visibility: 6 or more miles (10+ km)
Ceiling: at least 12,000 feet AGL
Clouds: few clouds at 2000 feet AGL
Weather: no significant weather observed at this time

Array
Quelimane - Mozambique, FQQL

ADDS - TAFS form results

Aviation Digital Data Service (ADDS)

Output produced by TAFs form (0427 UTC 24 April 2018)
found at http://aviationweather.gov/adds/tafs/
 
METAR text: FQQL 240400Z 26003KT 9999 FEW020 22/20 Q1016
Conditions at: FQQL (QUELIMANE , MZ) observed 0400 UTC 24 April 2018
Temperature: 22.0°C (72°F)
Dewpoint: 20.0°C (68°F) [RH = 88%]
Pressure (altimeter): 30.00 inches Hg (1016.0 mb)
Winds: from the W (260 degrees) at 3 MPH (3 knots; 1.6 m/s)
Visibility: 6 or more miles (10+ km)
Ceiling: at least 12,000 feet AGL
Clouds: few clouds at 2000 feet AGL
Weather: no significant weather observed at this time

Array
Tete - Mozambique, FQTT

ADDS - TAFS form results

Aviation Digital Data Service (ADDS)

Output produced by TAFs form (0427 UTC 24 April 2018)
found at http://aviationweather.gov/adds/tafs/
 
You entered "FQTT"

Sorry, either there are no data available for your request or you did not enter any valid ICAO airport abbreviations.

See stations.txt for a list of known METAR and TAF locations. Then go back to the ADDS METARs or TAFs page and try again
 
Please try again and, if problems persist, then send mail to ncep.awc.adds@noaa.gov
Array
Vilanculos - Mozambique, FQVL

ADDS - TAFS form results

Aviation Digital Data Service (ADDS)

Output produced by TAFs form (0427 UTC 24 April 2018)
found at http://aviationweather.gov/adds/tafs/
 
You entered "FQVL"

Sorry, either there are no data available for your request or you did not enter any valid ICAO airport abbreviations.

See stations.txt for a list of known METAR and TAF locations. Then go back to the ADDS METARs or TAFs page and try again
 
Please try again and, if problems persist, then send mail to ncep.awc.adds@noaa.gov
Array